createdAt,value
2023-03-16T00:01:44.157Z,2.52
2023-03-16T00:04:13.692Z,2.52
2023-03-16T00:06:44.433Z,2.51
2023-03-16T00:09:13.915Z,2.49
2023-03-16T00:11:44.656Z,2.49
2023-03-16T00:14:14.192Z,2.49
2023-03-16T00:16:44.415Z,2.46
2023-03-16T00:19:14.906Z,2.45
2023-03-16T00:21:46.890Z,2.44
2023-03-16T00:24:19.231Z,2.41
2023-03-16T00:26:49.095Z,2.35
2023-03-16T00:29:18.037Z,2.35
2023-03-16T00:31:48.691Z,2.35
2023-03-16T00:34:19.313Z,2.33
2023-03-16T00:36:52.778Z,2.27
2023-03-16T00:39:22.907Z,2.21
2023-03-16T00:41:52.370Z,2.23
2023-03-16T00:44:21.708Z,2.22
2023-03-16T00:46:50.728Z,2.23
2023-03-16T00:49:20.895Z,2.24
2023-03-16T00:51:51.001Z,2.17
2023-03-16T00:54:20.093Z,2.16
2023-03-16T00:56:49.041Z,2.12
2023-03-16T00:59:20.237Z,2.16
2023-03-16T01:01:49.328Z,2.19
2023-03-16T01:04:17.854Z,2.20
2023-03-16T01:06:47.082Z,2.18
2023-03-16T01:09:18.176Z,2.20
2023-03-16T01:11:51.500Z,2.21
2023-03-16T01:14:21.209Z,2.19
2023-03-16T01:16:49.989Z,2.18
2023-03-16T01:19:19.910Z,2.17
2023-03-16T01:21:49.549Z,2.14
2023-03-16T01:24:20.344Z,2.08
2023-03-16T01:26:49.844Z,2.08
2023-03-16T01:29:19.355Z,2.05
2023-03-16T01:31:50.542Z,2.06
2023-03-16T01:34:21.209Z,2.03
2023-03-16T01:36:52.632Z,2.05
2023-03-16T01:39:23.324Z,2.04
2023-03-16T01:41:53.972Z,2.06
2023-03-16T01:44:31.550Z,2.06
2023-03-16T01:47:00.718Z,2.03
2023-03-16T01:49:35.582Z,1.98
2023-03-16T01:52:10.366Z,1.97
2023-03-16T01:54:47.475Z,1.97
2023-03-16T01:57:21.329Z,2.00
2023-03-16T01:59:57.524Z,1.98
2023-03-16T02:02:33.111Z,1.99
2023-03-16T02:05:08.631Z,2.02
2023-03-16T02:07:45.417Z,2.03
2023-03-16T02:10:19.335Z,2.03
2023-03-16T02:12:49.776Z,2.03
2023-03-16T02:15:19.451Z,2.04
2023-03-16T02:17:52.263Z,2.02
2023-03-16T02:20:40.811Z,1.98
2023-03-16T02:23:18.589Z,1.98
2023-03-16T02:26:03.259Z,1.98
2023-03-16T02:28:40.281Z,1.98
2023-03-16T02:31:13.573Z,1.97
2023-03-16T02:33:45.138Z,1.96
2023-03-16T02:36:17.976Z,1.95
2023-03-16T02:38:48.365Z,1.94
2023-03-16T02:41:21.240Z,1.95
2023-03-16T02:43:57.637Z,1.92
2023-03-16T02:46:36.319Z,1.92
2023-03-16T02:49:13.411Z,1.93
2023-03-16T02:51:43.944Z,1.92
2023-03-16T02:54:13.480Z,1.90
2023-03-16T02:56:42.526Z,1.88
2023-03-16T02:59:12.746Z,1.89
2023-03-16T03:01:43.541Z,1.87
2023-03-16T03:04:13.357Z,1.88
2023-03-16T03:06:43.388Z,1.85
2023-03-16T03:09:13.423Z,1.83
2023-03-16T03:11:43.100Z,1.82
2023-03-16T03:14:12.815Z,1.83
2023-03-16T03:16:47.444Z,1.84
2023-03-16T03:19:18.165Z,1.86
2023-03-16T03:21:48.143Z,1.83
2023-03-16T03:24:18.129Z,1.80
2023-03-16T03:26:47.155Z,1.79
2023-03-16T03:29:16.162Z,1.81
2023-03-16T03:31:47.164Z,1.80
2023-03-16T03:34:17.894Z,1.79
2023-03-16T03:36:49.067Z,1.79
2023-03-16T03:39:19.152Z,1.76
2023-03-16T03:41:49.660Z,1.77
2023-03-16T03:44:19.182Z,1.77
2023-03-16T03:46:50.990Z,1.77
2023-03-16T03:49:20.425Z,1.78
2023-03-16T03:51:50.470Z,1.80
2023-03-16T03:54:20.693Z,1.77
2023-03-16T03:56:50.218Z,1.78
2023-03-16T03:59:19.948Z,1.79
2023-03-16T04:01:54.452Z,1.79
2023-03-16T04:04:24.502Z,1.79
2023-03-16T04:06:53.392Z,1.81
2023-03-16T04:09:23.804Z,1.81
2023-03-16T04:11:54.241Z,1.83
2023-03-16T04:14:24.504Z,1.81
2023-03-16T04:16:56.736Z,1.82
2023-03-16T04:19:27.393Z,1.83
2023-03-16T04:21:57.452Z,1.82
2023-03-16T04:24:27.581Z,1.83
2023-03-16T04:26:56.132Z,1.85
2023-03-16T04:29:26.019Z,1.87
2023-03-16T04:31:56.539Z,1.88
2023-03-16T04:34:26.815Z,1.88
2023-03-16T04:36:56.218Z,1.88
2023-03-16T04:39:27.255Z,1.85
2023-03-16T04:41:57.496Z,1.85
2023-03-16T04:44:27.538Z,1.83
2023-03-16T04:46:57.972Z,1.83
2023-03-16T04:49:30.093Z,1.83
2023-03-16T04:51:59.474Z,1.83
2023-03-16T04:54:30.166Z,1.83
2023-03-16T04:57:01.358Z,1.84
2023-03-16T04:59:32.430Z,1.83
2023-03-16T05:02:02.541Z,1.83
2023-03-16T05:04:32.819Z,1.82
2023-03-16T05:07:02.514Z,1.81
2023-03-16T05:09:32.470Z,1.81
2023-03-16T05:12:01.565Z,1.80
2023-03-16T05:14:31.792Z,1.78
2023-03-16T05:17:03.906Z,1.77
2023-03-16T05:19:34.601Z,1.75
2023-03-16T05:22:04.742Z,1.74
2023-03-16T05:24:34.420Z,1.72
2023-03-16T05:27:05.016Z,1.71
2023-03-16T05:29:35.424Z,1.71
2023-03-16T05:32:06.534Z,1.70
2023-03-16T05:34:36.747Z,1.70
2023-03-16T05:37:07.028Z,1.69
2023-03-16T05:39:36.998Z,1.68
2023-03-16T05:42:08.921Z,1.64
2023-03-16T05:44:39.814Z,1.62
2023-03-16T05:47:12.515Z,1.61
2023-03-16T05:49:42.387Z,1.61
2023-03-16T05:52:12.922Z,1.59
2023-03-16T05:54:43.622Z,1.58
2023-03-16T05:57:13.747Z,1.58
2023-03-16T05:59:43.962Z,1.57
2023-03-16T06:02:16.201Z,1.55
2023-03-16T06:04:47.690Z,1.57
2023-03-16T06:07:17.480Z,1.58
2023-03-16T06:09:48.720Z,1.57
2023-03-16T06:12:18.849Z,1.56
2023-03-16T06:14:48.374Z,1.55
2023-03-16T06:17:19.424Z,1.56
2023-03-16T06:19:49.518Z,1.59
2023-03-16T06:22:19.279Z,1.61
2023-03-16T06:24:48.835Z,1.59
2023-03-16T06:27:20.036Z,1.60
2023-03-16T06:29:50.010Z,1.60
2023-03-16T06:32:21.999Z,1.62
2023-03-16T06:34:51.028Z,1.64
2023-03-16T06:37:21.060Z,1.66
2023-03-16T06:39:51.204Z,1.70
2023-03-16T06:42:20.868Z,1.69
2023-03-16T06:44:51.330Z,1.70
2023-03-16T06:47:21.995Z,1.69
2023-03-16T06:49:52.471Z,1.70
2023-03-16T06:52:22.471Z,1.71
2023-03-16T06:54:51.892Z,1.76
2023-03-16T06:57:20.950Z,1.78
2023-03-16T06:59:51.065Z,1.83
2023-03-16T07:02:24.332Z,1.85
2023-03-16T07:04:54.716Z,1.87
2023-03-16T07:07:24.641Z,1.91
2023-03-16T07:09:54.631Z,1.93
2023-03-16T07:12:24.725Z,1.96
2023-03-16T07:14:54.795Z,2.03
2023-03-16T07:17:26.338Z,2.08
2023-03-16T07:19:56.478Z,2.14
2023-03-16T07:22:26.990Z,2.19
2023-03-16T07:24:58.195Z,2.22
2023-03-16T07:27:28.071Z,2.27
2023-03-16T07:29:57.102Z,2.29
2023-03-16T07:32:27.529Z,2.33
2023-03-16T07:34:59.332Z,2.39
2023-03-16T07:37:29.422Z,2.45
2023-03-16T07:39:58.898Z,2.50
2023-03-16T07:42:28.127Z,2.54
2023-03-16T07:44:57.137Z,2.60
2023-03-16T07:47:31.163Z,2.66
2023-03-16T07:50:02.349Z,2.70
2023-03-16T07:52:31.404Z,2.73
2023-03-16T07:55:00.284Z,2.75
2023-03-16T07:57:31.038Z,2.77
2023-03-16T08:00:01.320Z,2.79
2023-03-16T08:02:32.712Z,2.81
2023-03-16T08:05:02.229Z,2.83
2023-03-16T08:07:32.681Z,2.87
2023-03-16T08:10:02.893Z,2.93
2023-03-16T08:12:33.950Z,2.96
2023-03-16T08:15:06.481Z,3.04
2023-03-16T08:17:38.521Z,3.12
2023-03-16T08:20:15.186Z,3.17
2023-03-16T08:22:46.467Z,3.24
2023-03-16T08:25:20.432Z,3.30
2023-03-16T08:27:50.363Z,3.34
2023-03-16T08:30:22.648Z,3.39
2023-03-16T08:32:58.087Z,3.43
2023-03-16T08:35:29.747Z,3.49
2023-03-16T08:38:00.017Z,3.57
2023-03-16T08:40:30.350Z,3.59
2023-03-16T08:43:00.125Z,3.63
2023-03-16T08:45:29.596Z,3.69
2023-03-16T08:48:00.415Z,3.73
2023-03-16T08:50:30.167Z,3.80
2023-03-16T08:53:01.595Z,3.84
2023-03-16T08:55:31.639Z,3.89
2023-03-16T08:58:02.630Z,3.93
2023-03-16T09:00:32.765Z,3.97
2023-03-16T09:03:04.855Z,4.04
2023-03-16T09:05:34.819Z,4.07
2023-03-16T09:08:05.433Z,4.12
2023-03-16T09:10:36.030Z,4.18
2023-03-16T09:13:06.164Z,4.22
2023-03-16T09:15:36.628Z,4.31
2023-03-16T09:18:08.364Z,4.41
2023-03-16T09:20:39.330Z,4.48
2023-03-16T09:23:09.542Z,4.53
2023-03-16T09:25:39.018Z,4.61
2023-03-16T09:28:08.834Z,4.64
2023-03-16T09:30:39.589Z,4.70
2023-03-16T09:33:10.876Z,4.76
2023-03-16T09:35:41.267Z,4.81
2023-03-16T09:38:10.868Z,4.88
2023-03-16T09:40:43.896Z,4.95
2023-03-16T09:43:50.999Z,5.04
2023-03-16T09:46:29.899Z,5.13
2023-03-16T09:49:02.966Z,5.20
2023-03-16T09:51:43.791Z,5.26
2023-03-16T09:54:27.186Z,5.35
2023-03-16T09:56:59.456Z,5.41
2023-03-16T10:00:04.906Z,5.49
2023-03-16T10:03:19.320Z,5.57
2023-03-16T10:14:50.005Z,5.81
2023-03-16T10:17:25.853Z,5.88
2023-03-16T10:20:01.254Z,5.90
2023-03-16T10:22:36.318Z,5.95
2023-03-16T10:25:18.453Z,5.98
2023-03-16T10:27:49.415Z,6.06
2023-03-16T10:30:31.006Z,6.13
2023-03-16T10:33:09.190Z,6.19
2023-03-16T10:35:49.352Z,6.24
2023-03-16T10:38:34.005Z,6.30
2023-03-16T10:41:03.555Z,6.37
2023-03-16T10:43:33.847Z,6.45
2023-03-16T10:46:04.488Z,6.49
2023-03-16T10:48:36.165Z,6.56
2023-03-16T10:51:13.676Z,6.64
2023-03-16T10:53:47.184Z,6.74
2023-03-16T10:56:26.073Z,6.81
2023-03-16T10:58:55.168Z,6.89
2023-03-16T11:01:28.966Z,6.94
2023-03-16T11:03:59.480Z,7.00
2023-03-16T11:06:32.321Z,7.06
2023-03-16T11:09:14.571Z,7.12
2023-03-16T11:11:50.163Z,7.19
2023-03-16T11:14:28.640Z,7.31
2023-03-16T11:17:09.453Z,7.42
2023-03-16T11:19:48.528Z,7.52
2023-03-16T11:22:21.771Z,7.60
2023-03-16T11:25:02.811Z,7.70
2023-03-16T11:27:41.705Z,7.78
2023-03-16T11:30:20.748Z,7.85
2023-03-16T11:32:54.706Z,7.94
2023-03-16T11:35:41.986Z,7.99
2023-03-16T11:38:21.085Z,8.03
2023-03-16T11:41:01.140Z,8.13
2023-03-16T11:43:54.447Z,8.20
2023-03-16T11:46:29.686Z,8.22
2023-03-16T11:49:43.649Z,8.34
2023-03-16T11:52:26.617Z,8.38
2023-03-16T11:55:16.825Z,8.46
2023-03-16T11:58:04.319Z,8.53
2023-03-16T12:00:46.634Z,8.59
2023-03-16T12:03:42.944Z,8.62
2023-03-16T12:06:31.641Z,8.68
2023-03-16T12:09:52.111Z,8.74
2023-03-16T12:12:44.526Z,8.81
2023-03-16T12:15:36.098Z,8.86
2023-03-16T12:18:16.689Z,8.92
2023-03-16T12:20:55.433Z,8.96
2023-03-16T12:23:34.652Z,9.01
2023-03-16T12:26:05.200Z,9.07
2023-03-16T12:28:35.019Z,9.13
2023-03-16T12:31:14.638Z,9.20
2023-03-16T12:34:04.612Z,9.26
2023-03-16T12:37:03.364Z,9.30
2023-03-16T12:40:07.871Z,9.35
2023-03-16T12:43:08.387Z,9.42
2023-03-16T12:45:49.208Z,9.44
2023-03-16T12:48:29.944Z,9.50
2023-03-16T12:51:04.331Z,9.55
2023-03-16T12:53:54.774Z,9.61
2023-03-16T12:56:31.365Z,9.67
2023-03-16T12:59:06.445Z,9.69
2023-03-16T13:01:44.796Z,9.71
2023-03-16T13:04:20.774Z,9.78
2023-03-16T13:06:52.484Z,9.82
2023-03-16T13:09:28.114Z,9.90
2023-03-16T13:11:57.664Z,9.97
2023-03-16T13:14:40.978Z,10.02
2023-03-16T13:17:31.967Z,10.10
2023-03-16T13:20:30.775Z,10.17
2023-03-16T13:23:24.675Z,10.25
2023-03-16T13:26:16.141Z,10.31
2023-03-16T13:28:53.283Z,10.35
2023-03-16T13:31:28.189Z,10.40
2023-03-16T13:34:00.385Z,10.45
2023-03-16T13:36:33.610Z,10.51
2023-03-16T13:39:15.561Z,10.55
2023-03-16T13:41:45.200Z,10.60
2023-03-16T13:44:17.711Z,10.62
2023-03-16T13:46:51.457Z,10.63
2023-03-16T13:49:21.612Z,10.70
2023-03-16T13:51:53.273Z,10.76
2023-03-16T13:54:44.346Z,10.80
2023-03-16T13:57:17.502Z,10.86
2023-03-16T13:59:47.365Z,10.89
2023-03-16T14:02:22.031Z,10.92
2023-03-16T14:04:53.119Z,10.98
2023-03-16T14:07:26.964Z,11.02
2023-03-16T14:09:59.590Z,11.09
2023-03-16T14:12:28.560Z,11.20
2023-03-16T14:14:57.673Z,11.30
2023-03-16T14:17:29.556Z,11.36
2023-03-16T14:20:03.464Z,11.44
2023-03-16T14:22:39.524Z,11.45
2023-03-16T14:25:18.613Z,11.46
2023-03-16T14:27:49.042Z,11.45
2023-03-16T14:30:24.946Z,11.42
2023-03-16T14:33:00.531Z,11.42
2023-03-16T14:35:33.112Z,11.39
2023-03-16T14:38:32.077Z,11.37
2023-03-16T14:41:08.517Z,11.41
2023-03-16T14:43:41.476Z,11.40
2023-03-16T14:46:22.479Z,11.43
2023-03-16T14:48:53.789Z,11.49
2023-03-16T14:51:24.534Z,11.52
2023-03-16T14:53:55.502Z,11.56
2023-03-16T14:56:33.058Z,11.58
2023-03-16T14:59:02.517Z,11.55
2023-03-16T15:01:33.037Z,11.58
2023-03-16T15:04:04.254Z,11.57
2023-03-16T15:06:35.012Z,11.63
2023-03-16T15:09:08.389Z,11.68
2023-03-16T15:11:38.490Z,11.67
2023-03-16T15:14:35.632Z,11.71
2023-03-16T15:17:06.012Z,11.72
2023-03-16T15:19:36.897Z,11.69
2023-03-16T15:22:08.828Z,11.74
2023-03-16T15:24:40.062Z,11.75
2023-03-16T15:27:25.308Z,11.74
2023-03-16T15:29:57.517Z,11.73
2023-03-16T15:32:27.247Z,11.76
2023-03-16T15:34:56.344Z,11.72
2023-03-16T15:37:27.801Z,11.69
2023-03-16T15:39:58.822Z,11.68
2023-03-16T15:42:29.448Z,11.72
2023-03-16T15:45:00.117Z,11.72
2023-03-16T15:47:30.060Z,11.71
2023-03-16T15:50:00.014Z,11.70
2023-03-16T15:52:35.864Z,11.70
2023-03-16T15:55:08.992Z,11.71
2023-03-16T15:57:38.901Z,11.68
2023-03-16T16:00:22.655Z,11.69
2023-03-16T16:02:52.628Z,11.67
2023-03-16T16:05:25.236Z,11.66
2023-03-16T16:07:54.850Z,11.66
2023-03-16T16:10:27.026Z,11.63
2023-03-16T16:12:58.274Z,11.63
2023-03-16T16:15:31.152Z,11.63
2023-03-16T16:18:20.361Z,11.61
2023-03-16T16:20:48.444Z,11.61
2023-03-16T16:23:18.657Z,11.59
2023-03-16T16:25:51.368Z,11.57
2023-03-16T16:28:24.805Z,11.55
2023-03-16T16:30:53.842Z,11.47
2023-03-16T16:33:29.050Z,11.48
2023-03-16T16:36:01.585Z,11.45
2023-03-16T16:38:32.956Z,11.42
2023-03-16T16:41:07.822Z,11.41
2023-03-16T16:43:41.696Z,11.40
2023-03-16T16:46:16.777Z,11.39
2023-03-16T16:48:48.829Z,11.34
2023-03-16T16:51:21.622Z,11.32
2023-03-16T16:53:52.146Z,11.29
2023-03-16T16:56:28.866Z,11.26
2023-03-16T16:58:59.426Z,11.23
2023-03-16T17:01:33.638Z,11.21
2023-03-16T17:04:03.447Z,11.17
2023-03-16T17:06:33.012Z,11.12
2023-03-16T17:09:03.014Z,11.08
2023-03-16T17:11:34.377Z,11.03
2023-03-16T17:14:08.138Z,10.93
2023-03-16T17:16:38.586Z,10.87
2023-03-16T17:19:19.017Z,10.77
2023-03-16T17:21:49.637Z,10.71
2023-03-16T17:24:19.376Z,10.68
2023-03-16T17:26:54.614Z,10.60
2023-03-16T17:29:28.751Z,10.51
2023-03-16T17:31:58.221Z,10.46
2023-03-16T17:34:30.466Z,10.40
2023-03-16T17:37:00.120Z,10.34
2023-03-16T17:39:32.434Z,10.29
2023-03-16T17:42:12.784Z,10.20
2023-03-16T17:44:46.195Z,10.15
2023-03-16T17:47:21.983Z,10.08
2023-03-16T17:49:52.117Z,10.00
2023-03-16T17:52:24.063Z,9.93
2023-03-16T17:54:55.736Z,9.88
2023-03-16T17:57:31.236Z,9.80
2023-03-16T18:00:01.323Z,9.75
2023-03-16T18:02:44.626Z,9.68
2023-03-16T18:05:21.407Z,9.63
2023-03-16T18:07:51.564Z,9.54
2023-03-16T18:10:25.388Z,9.45
2023-03-16T18:13:04.466Z,9.41
2023-03-16T18:15:37.621Z,9.33
2023-03-16T18:18:08.904Z,9.28
2023-03-16T18:20:38.788Z,9.22
2023-03-16T18:23:21.482Z,9.20
2023-03-16T18:25:55.201Z,9.13
2023-03-16T18:28:27.228Z,9.07
2023-03-16T18:30:59.011Z,9.03
2023-03-16T18:33:34.272Z,8.95
2023-03-16T18:36:07.853Z,8.88
2023-03-16T18:38:42.125Z,8.82
2023-03-16T18:41:18.719Z,8.78
2023-03-16T18:43:51.994Z,8.72
2023-03-16T18:46:27.132Z,8.65
2023-03-16T18:48:59.673Z,8.58
2023-03-16T18:51:30.159Z,8.52
2023-03-16T18:53:59.963Z,8.47
2023-03-16T18:56:31.290Z,8.41
2023-03-16T18:59:02.300Z,8.37
2023-03-16T19:01:35.232Z,8.32
2023-03-16T19:04:04.597Z,8.27
2023-03-16T19:06:37.963Z,8.21
2023-03-16T19:09:14.114Z,8.12
2023-03-16T19:11:46.921Z,8.01
2023-03-16T19:14:21.565Z,7.97
2023-03-16T19:16:52.650Z,7.90
2023-03-16T19:19:23.408Z,7.85
2023-03-16T19:21:56.454Z,7.76
2023-03-16T19:24:30.406Z,7.75
2023-03-16T19:27:00.232Z,7.72
2023-03-16T19:29:35.913Z,7.65
2023-03-16T19:32:05.052Z,7.62
2023-03-16T19:34:34.647Z,7.55
2023-03-16T19:37:04.120Z,7.49
2023-03-16T19:39:33.799Z,7.44
2023-03-16T19:42:03.449Z,7.36
2023-03-16T19:44:33.352Z,7.30
2023-03-16T19:47:05.367Z,7.23
2023-03-16T19:49:34.982Z,7.21
2023-03-16T19:52:07.940Z,7.19
2023-03-16T19:54:39.540Z,7.11
2023-03-16T19:57:15.353Z,7.10
2023-03-16T19:59:52.334Z,7.04
2023-03-16T20:02:28.331Z,6.99
2023-03-16T20:04:58.756Z,6.95
2023-03-16T20:07:28.333Z,6.90
2023-03-16T20:09:58.366Z,6.87
2023-03-16T20:12:29.836Z,6.78
2023-03-16T20:15:01.375Z,6.72
2023-03-16T20:17:33.047Z,6.72
2023-03-16T20:20:02.603Z,6.68
2023-03-16T20:22:32.138Z,6.63
2023-03-16T20:25:02.958Z,6.61
2023-03-16T20:27:32.648Z,6.55
2023-03-16T20:30:04.566Z,6.46
2023-03-16T20:32:37.597Z,6.48
2023-03-16T20:35:16.749Z,6.45
2023-03-16T20:37:46.569Z,6.42
2023-03-16T20:40:16.744Z,6.42
2023-03-16T20:42:46.380Z,6.41
2023-03-16T20:45:27.242Z,6.39
2023-03-16T20:47:56.779Z,6.35
2023-03-16T20:50:29.719Z,6.32
2023-03-16T20:52:59.096Z,6.31
2023-03-16T20:55:30.157Z,6.26
2023-03-16T20:57:58.920Z,6.24
2023-03-16T21:00:35.394Z,6.20
2023-03-16T21:03:12.991Z,6.19
2023-03-16T21:05:41.579Z,6.18
2023-03-16T21:08:10.878Z,6.15
2023-03-16T21:10:40.610Z,6.11
2023-03-16T21:13:21.500Z,6.12
2023-03-16T21:15:53.594Z,6.06
2023-03-16T21:18:23.127Z,6.01
2023-03-16T21:20:53.628Z,5.97
2023-03-16T21:23:25.140Z,5.89
2023-03-16T21:25:58.873Z,5.87
2023-03-16T21:28:31.829Z,5.86
2023-03-16T21:31:03.493Z,5.81
2023-03-16T21:33:37.286Z,5.83
2023-03-16T21:36:13.575Z,5.78
2023-03-16T21:38:42.085Z,5.78
2023-03-16T21:41:11.324Z,5.76
2023-03-16T21:43:40.555Z,5.76
2023-03-16T21:46:18.424Z,5.75
2023-03-16T21:48:50.991Z,5.72
2023-03-16T21:51:24.913Z,5.70
2023-03-16T21:53:54.563Z,5.68
2023-03-16T21:56:26.128Z,5.67
2023-03-16T21:58:56.512Z,5.64
2023-03-16T22:01:31.202Z,5.57
2023-03-16T22:04:06.115Z,5.53
2023-03-16T22:06:35.843Z,5.56
2023-03-16T22:09:04.856Z,5.55
2023-03-16T22:11:35.018Z,5.55
2023-03-16T22:14:03.499Z,5.54
2023-03-16T22:16:38.511Z,5.51
2023-03-16T22:19:14.043Z,5.49
2023-03-16T22:21:45.557Z,5.37
2023-03-16T22:24:19.355Z,5.30
2023-03-16T22:26:49.691Z,5.33
2023-03-16T22:29:24.499Z,5.35
2023-03-16T22:32:00.202Z,5.34
2023-03-16T22:34:33.927Z,5.32
2023-03-16T22:37:04.333Z,5.33
2023-03-16T22:39:39.012Z,5.31
2023-03-16T22:42:28.098Z,5.29
2023-03-16T22:44:57.029Z,5.26
2023-03-16T22:47:33.007Z,5.26
2023-03-16T22:50:03.662Z,5.21
2023-03-16T22:52:39.179Z,5.20
2023-03-16T22:55:16.789Z,5.15
2023-03-16T22:57:46.709Z,5.14
2023-03-16T23:00:21.411Z,5.17
2023-03-16T23:02:52.731Z,5.19
2023-03-16T23:05:25.184Z,5.16
2023-03-16T23:07:55.637Z,5.15
2023-03-16T23:10:29.617Z,5.16
2023-03-16T23:13:02.107Z,5.15
2023-03-16T23:15:33.429Z,5.07
2023-03-16T23:18:03.772Z,5.07
2023-03-16T23:20:34.073Z,5.03
2023-03-16T23:23:04.131Z,4.99
2023-03-16T23:25:34.093Z,5.00
2023-03-16T23:28:04.668Z,5.01
2023-03-16T23:30:35.453Z,4.98
2023-03-16T23:33:07.023Z,5.00
2023-03-16T23:35:36.113Z,4.98
2023-03-16T23:38:04.798Z,4.94
2023-03-16T23:40:37.699Z,4.93
2023-03-16T23:43:09.246Z,4.87
2023-03-16T23:45:44.900Z,4.87
2023-03-16T23:48:19.549Z,4.84
2023-03-16T23:50:52.637Z,4.84
2023-03-16T23:53:21.868Z,4.82
2023-03-16T23:55:52.617Z,4.81
2023-03-16T23:58:21.611Z,4.78
